createdAt,value
2023-04-04T00:01:49.620Z,90.44
2023-04-04T00:04:57.164Z,95.13
2023-04-04T00:08:03.291Z,93.18
2023-04-04T00:11:17.602Z,92.96
2023-04-04T00:14:25.441Z,96.81
2023-04-04T00:17:32.247Z,95.21
2023-04-04T00:20:39.013Z,97.38
2023-04-04T00:23:45.954Z,91.98
2023-04-04T00:26:54.578Z,90.59
2023-04-04T00:30:04.764Z,88.89
2023-04-04T00:33:10.947Z,90.87
2023-04-04T00:36:18.965Z,91.37
2023-04-04T00:39:26.782Z,91.12
2023-04-04T00:42:37.753Z,93.66
2023-04-04T00:45:44.694Z,93.61
2023-04-04T00:48:54.541Z,94.27
2023-04-04T00:52:00.549Z,94.30
2023-04-04T00:55:20.898Z,92.27
2023-04-04T00:58:30.580Z,86.86
2023-04-04T01:01:38.944Z,86.60
2023-04-04T01:04:51.963Z,88.61
2023-04-04T01:07:59.171Z,85.60
2023-04-04T01:11:05.727Z,85.54
2023-04-04T01:14:15.964Z,88.15
2023-04-04T01:17:23.124Z,88.28
2023-04-04T01:20:37.276Z,88.90
2023-04-04T01:24:05.185Z,88.73
2023-04-04T01:27:30.079Z,88.79
2023-04-04T01:30:49.191Z,87.65
2023-04-04T01:34:08.141Z,93.67
2023-04-04T01:37:33.386Z,93.46
2023-04-04T01:40:47.837Z,93.19
2023-04-04T01:43:57.598Z,91.92
2023-04-04T01:47:08.955Z,84.54
2023-04-04T01:50:15.773Z,89.00
2023-04-04T01:53:23.402Z,91.15
2023-04-04T01:56:29.475Z,87.86
2023-04-04T01:59:41.555Z,90.76
2023-04-04T02:02:47.890Z,89.92
2023-04-04T02:05:56.402Z,91.48
2023-04-04T02:09:02.933Z,96.29
2023-04-04T02:12:12.195Z,91.68
2023-04-04T02:15:24.227Z,93.63
2023-04-04T02:18:37.355Z,94.60
2023-04-04T02:21:57.774Z,96.35
2023-04-04T02:25:12.987Z,104.07
2023-04-04T02:28:18.940Z,105.13
2023-04-04T02:31:32.600Z,105.39
2023-04-04T02:34:39.037Z,103.17
2023-04-04T02:37:49.841Z,105.90
2023-04-04T02:41:05.393Z,101.66
2023-04-04T02:44:12.903Z,107.73
2023-04-04T02:47:24.440Z,104.75
2023-04-04T02:50:31.290Z,101.23
2023-04-04T02:53:40.098Z,100.13
2023-04-04T02:57:01.747Z,99.36
2023-04-04T03:00:10.191Z,92.81
2023-04-04T03:03:20.635Z,93.02
2023-04-04T03:06:37.983Z,92.38
2023-04-04T03:09:47.731Z,98.61
2023-04-04T03:12:53.890Z,96.43
2023-04-04T03:16:10.559Z,97.27
2023-04-04T03:19:28.298Z,94.22
2023-04-04T03:22:36.389Z,90.06
2023-04-04T03:25:42.585Z,88.18
2023-04-04T03:28:49.571Z,85.29
2023-04-04T03:32:18.481Z,84.61
2023-04-04T03:35:28.351Z,93.16
2023-04-04T03:38:34.544Z,92.10
2023-04-04T03:41:50.178Z,88.40
2023-04-04T03:44:56.513Z,90.65
2023-04-04T03:48:14.093Z,91.08
2023-04-04T03:51:27.713Z,86.07
2023-04-04T03:54:42.202Z,92.02
2023-04-04T03:57:49.566Z,95.16
2023-04-04T04:00:57.551Z,94.94
2023-04-04T04:04:08.453Z,90.13
2023-04-04T04:07:19.514Z,92.96
2023-04-04T04:10:25.819Z,93.09
2023-04-04T04:13:32.893Z,99.03
2023-04-04T04:16:43.451Z,114.05
2023-04-04T04:19:54.238Z,117.47
2023-04-04T04:23:04.393Z,131.70
2023-04-04T04:26:11.284Z,136.36
2023-04-04T04:29:17.418Z,150.34
2023-04-04T04:32:33.923Z,155.00
2023-04-04T04:35:41.317Z,149.10
2023-04-04T04:38:56.289Z,139.69
2023-04-04T04:42:06.086Z,129.49
2023-04-04T04:45:16.507Z,128.91
2023-04-04T04:48:27.453Z,136.05
2023-04-04T04:51:37.793Z,141.37
2023-04-04T04:54:56.285Z,130.03
2023-04-04T04:58:04.706Z,135.91
2023-04-04T05:01:11.662Z,130.68
2023-04-04T05:04:22.773Z,119.49
2023-04-04T05:07:51.768Z,127.68
2023-04-04T05:11:02.697Z,125.00
2023-04-04T05:14:11.765Z,119.10
2023-04-04T05:17:37.190Z,111.48
2023-04-04T05:20:46.804Z,107.89
2023-04-04T05:23:54.196Z,104.83
2023-04-04T05:27:07.888Z,103.00
2023-04-04T05:30:21.135Z,97.96
2023-04-04T05:33:40.292Z,91.53
2023-04-04T05:36:56.738Z,91.58
2023-04-04T05:40:03.302Z,87.55
2023-04-04T05:43:12.936Z,85.28
2023-04-04T05:46:33.187Z,82.88
2023-04-04T05:49:40.092Z,91.37
2023-04-04T05:52:46.299Z,84.72
2023-04-04T05:55:56.021Z,82.24
2023-04-04T05:59:22.343Z,90.59
2023-04-04T06:02:46.663Z,79.75
2023-04-04T06:05:57.453Z,75.93
2023-04-04T06:09:05.805Z,71.94
2023-04-04T06:12:14.355Z,71.85
2023-04-04T06:15:24.846Z,74.26
2023-04-04T06:18:31.746Z,71.74
2023-04-04T06:21:39.157Z,71.82
2023-04-04T06:24:45.392Z,76.60
2023-04-04T06:27:54.427Z,78.15
2023-04-04T06:31:03.230Z,69.70
2023-04-04T06:34:15.289Z,64.75
2023-04-04T06:37:35.796Z,63.95
2023-04-04T06:40:50.753Z,66.78
2023-04-04T06:44:03.215Z,68.23
2023-04-04T06:47:29.224Z,65.49
2023-04-04T06:50:35.474Z,69.18
2023-04-04T06:53:45.068Z,60.48
2023-04-04T06:56:52.045Z,59.62
2023-04-04T07:00:11.506Z,57.32
2023-04-04T07:03:27.232Z,58.30
2023-04-04T07:06:34.112Z,56.02
2023-04-04T07:09:40.201Z,59.78
2023-04-04T07:12:47.051Z,57.85
2023-04-04T07:15:59.315Z,58.83
2023-04-04T07:19:08.855Z,58.96
2023-04-04T07:22:21.837Z,55.58
2023-04-04T07:25:31.922Z,49.01
2023-04-04T07:28:37.901Z,51.79
2023-04-04T07:31:45.091Z,52.83
2023-04-04T07:34:53.961Z,48.70
2023-04-04T07:38:07.215Z,48.17
2023-04-04T07:41:16.602Z,50.21
2023-04-04T07:44:23.582Z,51.05
2023-04-04T07:47:29.633Z,59.95
2023-04-04T07:50:39.208Z,60.04
2023-04-04T07:53:45.267Z,50.89
2023-04-04T07:56:51.992Z,55.22
2023-04-04T07:59:58.057Z,48.63
2023-04-04T08:03:05.012Z,48.29
2023-04-04T08:06:13.761Z,47.66
2023-04-04T08:09:20.586Z,54.60
2023-04-04T08:12:26.644Z,43.40
2023-04-04T08:15:33.326Z,43.24
2023-04-04T08:18:40.975Z,42.01
2023-04-04T08:21:50.408Z,45.29
2023-04-04T08:24:59.036Z,48.59
2023-04-04T08:28:07.248Z,38.38
2023-04-04T08:31:13.520Z,45.26
2023-04-04T08:34:21.077Z,48.25
2023-04-04T08:37:31.450Z,41.10
2023-04-04T08:40:38.896Z,40.31
2023-04-04T08:43:54.774Z,57.97
2023-04-04T08:47:05.778Z,43.28
2023-04-04T08:50:12.345Z,37.09
2023-04-04T08:53:23.516Z,36.09
2023-04-04T08:56:30.126Z,41.55
2023-04-04T08:59:37.445Z,40.26
2023-04-04T09:02:58.330Z,34.85
2023-04-04T09:06:07.689Z,43.18
2023-04-04T09:09:18.883Z,42.29
2023-04-04T09:12:27.876Z,51.18
2023-04-04T09:15:38.717Z,68.51
2023-04-04T09:18:45.535Z,43.98
2023-04-04T09:21:52.238Z,45.25
2023-04-04T09:25:01.810Z,45.29
2023-04-04T09:28:08.700Z,47.31
2023-04-04T09:31:17.643Z,49.89
2023-04-04T09:34:24.314Z,64.21
2023-04-04T09:37:31.473Z,74.25
2023-04-04T09:40:44.246Z,49.32
2023-04-04T09:43:51.554Z,42.31
2023-04-04T09:47:30.955Z,97.63
2023-04-04T09:50:41.757Z,41.07
2023-04-04T09:53:52.224Z,66.18
2023-04-04T09:57:02.087Z,40.29
2023-04-04T10:00:11.585Z,52.16
2023-04-04T10:03:21.244Z,81.53
2023-04-04T10:06:27.556Z,38.93
2023-04-04T10:09:34.542Z,86.22
2023-04-04T10:12:43.170Z,97.56
2023-04-04T10:15:51.098Z,43.59
2023-04-04T10:18:57.619Z,41.45
2023-04-04T10:22:08.199Z,38.78
2023-04-04T10:25:14.533Z,40.80
2023-04-04T10:28:25.115Z,40.28
2023-04-04T10:31:37.608Z,47.26
2023-04-04T10:34:56.972Z,67.69
2023-04-04T10:38:08.675Z,64.11
2023-04-04T10:41:18.003Z,47.53
2023-04-04T10:44:34.229Z,44.15
2023-04-04T10:47:43.412Z,54.59
2023-04-04T10:50:52.069Z,48.44
2023-04-04T10:53:59.651Z,44.64
2023-04-04T10:57:06.200Z,74.95
2023-04-04T11:00:19.744Z,53.02
2023-04-04T11:03:26.422Z,83.52
2023-04-04T11:07:17.650Z,63.43
2023-04-04T11:10:28.608Z,102.44
2023-04-04T11:13:40.211Z,81.94
2023-04-04T11:16:55.796Z,81.79
2023-04-04T11:20:06.960Z,98.74
2023-04-04T11:23:23.223Z,116.87
2023-04-04T11:26:39.928Z,62.58
2023-04-04T11:29:56.077Z,92.38
2023-04-04T11:33:08.178Z,49.94
2023-04-04T11:36:47.759Z,53.86
2023-04-04T11:39:59.336Z,50.66
2023-04-04T11:43:11.154Z,52.88
2023-04-04T11:46:21.517Z,64.16
2023-04-04T11:49:38.481Z,83.54
2023-04-04T11:52:46.563Z,119.74
2023-04-04T11:55:55.063Z,73.89
2023-04-04T11:59:11.026Z,56.47
2023-04-04T12:02:23.832Z,56.60
2023-04-04T12:05:34.410Z,74.89
2023-04-04T12:08:40.845Z,60.16
2023-04-04T12:11:48.624Z,65.33
2023-04-04T12:15:06.762Z,67.58
2023-04-04T12:18:26.836Z,50.68
2023-04-04T12:21:37.484Z,53.52
2023-04-04T12:24:44.464Z,55.27
2023-04-04T12:27:52.973Z,61.54
2023-04-04T12:31:05.586Z,71.22
2023-04-04T12:34:19.949Z,76.88
2023-04-04T12:37:33.500Z,79.67
2023-04-04T12:40:42.183Z,68.38
2023-04-04T12:43:50.338Z,82.48
2023-04-04T12:47:00.947Z,103.07
2023-04-04T12:50:12.186Z,63.05
2023-04-04T12:56:35.839Z,70.17
2023-04-04T12:59:42.537Z,72.56
2023-04-04T13:02:53.501Z,99.07
2023-04-04T13:06:01.634Z,106.73
2023-04-04T13:09:21.169Z,83.65
2023-04-04T13:12:27.563Z,74.16
2023-04-04T13:15:54.787Z,119.26
2023-04-04T13:19:01.228Z,94.94
2023-04-04T13:22:12.602Z,129.76
2023-04-04T13:25:21.584Z,81.02
2023-04-04T13:28:28.609Z,64.32
2023-04-04T13:31:34.769Z,68.60
2023-04-04T13:34:41.742Z,52.92
2023-04-04T13:37:47.803Z,53.15
2023-04-04T13:40:57.659Z,52.79
2023-04-04T13:44:03.915Z,57.60
2023-04-04T13:47:10.828Z,65.75
2023-04-04T13:50:17.160Z,70.17
2023-04-04T13:53:24.263Z,70.61
2023-04-04T13:56:32.979Z,66.84
2023-04-04T13:59:39.871Z,65.55
2023-04-04T14:02:47.004Z,71.71
2023-04-04T14:05:54.045Z,77.90
2023-04-04T14:09:00.051Z,55.47
2023-04-04T14:12:10.088Z,50.66
2023-04-04T14:15:16.230Z,61.73
2023-04-04T14:18:23.157Z,58.81
2023-04-04T14:21:29.201Z,52.27
2023-04-04T14:24:35.998Z,51.14
2023-04-04T14:27:46.497Z,76.89
2023-04-04T14:30:54.165Z,90.88
2023-04-04T14:34:00.505Z,65.17
2023-04-04T14:37:07.796Z,65.42
2023-04-04T14:40:14.530Z,62.52
2023-04-04T14:43:26.246Z,71.21
2023-04-04T14:46:34.268Z,80.56
2023-04-04T14:49:41.053Z,69.04
2023-04-04T14:52:48.101Z,54.71
2023-04-04T14:55:55.637Z,78.55
2023-04-04T14:59:06.059Z,69.31
2023-04-04T15:02:12.854Z,68.49
2023-04-04T15:05:19.493Z,61.80
2023-04-04T15:08:26.759Z,79.17
2023-04-04T15:11:33.396Z,73.46
2023-04-04T15:14:43.112Z,68.90
2023-04-04T15:17:51.179Z,98.17
2023-04-04T15:21:00.372Z,89.02
2023-04-04T15:24:06.495Z,77.94
2023-04-04T15:27:15.574Z,70.53
2023-04-04T15:30:29.566Z,62.50
2023-04-04T15:33:39.349Z,66.95
2023-04-04T15:36:45.451Z,62.34
2023-04-04T15:39:55.048Z,61.97
2023-04-04T15:43:01.573Z,66.57
2023-04-04T15:46:14.371Z,81.10
2023-04-04T15:49:20.417Z,79.58
2023-04-04T15:52:27.450Z,84.46
2023-04-04T15:55:33.472Z,103.94
2023-04-04T15:58:40.219Z,86.96
2023-04-04T16:01:49.222Z,65.70
2023-04-04T16:04:56.225Z,67.83
2023-04-04T16:08:03.412Z,64.26
2023-04-04T16:11:10.195Z,74.20
2023-04-04T16:14:16.339Z,77.17
2023-04-04T16:17:26.434Z,84.15
2023-04-04T16:20:33.246Z,77.37
2023-04-04T16:23:40.118Z,79.55
2023-04-04T16:26:47.737Z,72.01
2023-04-04T16:29:54.553Z,98.97
2023-04-04T16:33:10.453Z,112.09
2023-04-04T16:36:17.512Z,128.75
2023-04-04T16:39:23.483Z,98.83
2023-04-04T16:42:30.449Z,94.36
2023-04-04T16:45:36.499Z,79.99
2023-04-04T16:48:46.314Z,100.25
2023-04-04T16:51:52.312Z,83.34
2023-04-04T16:54:59.192Z,106.92
2023-04-04T16:58:05.366Z,114.97
2023-04-04T17:01:15.404Z,104.66
2023-04-04T17:04:24.008Z,150.12
2023-04-04T17:07:31.119Z,130.77
2023-04-04T17:10:40.818Z,141.02
2023-04-04T17:13:47.988Z,114.62
2023-04-04T17:16:54.577Z,137.08
2023-04-04T17:20:08.642Z,163.05
2023-04-04T17:23:17.425Z,155.66
2023-04-04T17:26:40.068Z,135.24
2023-04-04T17:29:46.414Z,158.15
2023-04-04T17:32:55.683Z,138.83
2023-04-04T17:36:06.586Z,120.12
2023-04-04T17:39:15.773Z,132.92
2023-04-04T17:42:21.778Z,134.77
2023-04-04T17:45:39.382Z,121.24
2023-04-04T17:48:49.971Z,145.64
2023-04-04T17:52:21.456Z,159.47
2023-04-04T17:55:42.201Z,147.85
2023-04-04T17:58:49.990Z,129.82
2023-04-04T18:01:57.326Z,107.55
2023-04-04T18:05:04.457Z,103.08
2023-04-04T18:08:14.236Z,135.37
2023-04-04T18:11:21.256Z,117.53
2023-04-04T18:14:30.231Z,116.17
2023-04-04T18:17:37.203Z,105.03
2023-04-04T18:20:43.609Z,120.51
2023-04-04T18:23:53.365Z,139.72
2023-04-04T18:26:59.971Z,131.11
2023-04-04T18:30:07.839Z,115.04
2023-04-04T18:33:15.277Z,115.40
2023-04-04T18:36:22.271Z,118.22
2023-04-04T18:39:31.337Z,131.98
2023-04-04T18:42:38.980Z,133.53
2023-04-04T18:45:47.119Z,151.43
2023-04-04T18:48:54.286Z,157.08
2023-04-04T18:52:01.218Z,174.74
2023-04-04T18:55:12.721Z,188.85
2023-04-04T18:58:18.810Z,195.51
2023-04-04T19:01:26.028Z,194.96
2023-04-04T19:04:38.788Z,201.55
2023-04-04T19:07:49.732Z,195.92
2023-04-04T19:11:03.571Z,193.16
2023-04-04T19:14:10.547Z,184.44
2023-04-04T19:17:18.522Z,185.96
2023-04-04T19:20:35.064Z,165.38
2023-04-04T19:23:41.474Z,164.73
2023-04-04T19:26:59.367Z,206.30
2023-04-04T19:30:14.640Z,253.97
2023-04-04T19:33:26.103Z,256.96
2023-04-04T19:36:40.867Z,272.05
2023-04-04T19:39:53.789Z,307.49
2023-04-04T19:43:04.342Z,305.70
2023-04-04T19:46:14.434Z,304.28
2023-04-04T19:49:21.086Z,342.35
2023-04-04T19:52:41.455Z,360.56
2023-04-04T19:55:47.738Z,361.16
2023-04-04T19:59:08.095Z,354.04
2023-04-04T20:02:58.286Z,349.32
2023-04-04T20:06:12.661Z,342.07
2023-04-04T20:09:40.341Z,355.72
2023-04-04T20:12:56.674Z,337.08
2023-04-04T20:16:12.356Z,346.83
2023-04-04T20:19:32.615Z,352.06
2023-04-04T20:22:38.871Z,355.87
2023-04-04T20:25:47.399Z,388.14
2023-04-04T20:28:53.433Z,436.28
2023-04-04T20:32:05.714Z,480.83
2023-04-04T20:35:29.286Z,523.36
2023-04-04T20:38:36.627Z,568.81
2023-04-04T20:41:45.783Z,590.72
2023-04-04T20:44:52.729Z,581.57
2023-04-04T20:48:06.789Z,573.05
2023-04-04T20:51:30.182Z,560.38
2023-04-04T20:54:39.672Z,555.49
2023-04-04T20:57:48.543Z,558.72
2023-04-04T21:00:54.752Z,554.52
2023-04-04T21:04:04.275Z,578.48
2023-04-04T21:07:10.447Z,630.18
2023-04-04T21:10:27.636Z,616.94
2023-04-04T21:13:39.402Z,562.02
2023-04-04T21:16:46.301Z,542.38
2023-04-04T21:20:07.442Z,539.27
2023-04-04T21:23:36.361Z,532.39
2023-04-04T21:26:51.448Z,502.24
2023-04-04T21:29:58.440Z,525.29
2023-04-04T21:33:04.646Z,515.52
2023-04-04T21:36:27.749Z,516.08
2023-04-04T21:39:35.350Z,525.87
2023-04-04T21:42:42.163Z,536.51
2023-04-04T21:45:48.482Z,542.41
2023-04-04T21:48:56.283Z,560.66
2023-04-04T21:52:05.024Z,564.35
2023-04-04T21:55:15.321Z,583.66
2023-04-04T21:58:23.605Z,596.58
2023-04-04T22:01:31.286Z,629.88
2023-04-04T22:04:37.442Z,626.31
2023-04-04T22:07:47.218Z,641.09
2023-04-04T22:10:53.281Z,741.04
2023-04-04T22:14:07.846Z,700.56
2023-04-04T22:17:23.153Z,652.69
2023-04-04T22:20:29.958Z,664.97
2023-04-04T22:23:40.600Z,687.81
2023-04-04T22:26:47.693Z,700.97
2023-04-04T22:29:53.671Z,716.64
2023-04-04T22:33:03.783Z,710.88
2023-04-04T22:36:11.303Z,698.06
2023-04-04T22:39:20.952Z,683.14
2023-04-04T22:42:27.218Z,697.26
2023-04-04T22:45:34.790Z,712.16
2023-04-04T22:48:41.637Z,705.34
2023-04-04T22:51:48.535Z,694.59
2023-04-04T22:54:57.161Z,686.08
2023-04-04T22:58:04.987Z,665.63
2023-04-04T23:01:11.200Z,678.12
2023-04-04T23:04:18.203Z,687.86
2023-04-04T23:07:24.243Z,709.99
2023-04-04T23:10:34.676Z,869.59
2023-04-04T23:13:42.627Z,879.87
2023-04-04T23:16:53.065Z,867.67
2023-04-04T23:19:59.411Z,856.33
2023-04-04T23:23:06.312Z,829.72
2023-04-04T23:26:14.921Z,858.09
2023-04-04T23:29:21.757Z,869.20
2023-04-04T23:32:27.793Z,859.75
2023-04-04T23:35:34.730Z,859.66
2023-04-04T23:38:43.562Z,856.00
2023-04-04T23:41:52.960Z,872.57
2023-04-04T23:45:03.790Z,899.89
2023-04-04T23:48:11.139Z,841.20
2023-04-04T23:51:17.823Z,729.25
2023-04-04T23:54:24.582Z,661.92
2023-04-04T23:57:39.471Z,642.31
